Time;durP1;ratioP1;P1;durP2;ratioP2;P2;SDS_P1;SDS_P2;PMS_P1;PMS_P2;Temp;Humidity;BMP_temperature;BMP_pressure;BME280_temperature;BME280_humidity;BME280_pressure;Samples;Min_cycle;Max_cycle;Signal;HPM_P1;HPM_P2
2021/10/25 00:00:33;;;;;;;8.60;6.90;;;9.10;99.90;;;;;;5043952;28;20276;-62
2021/10/25 00:03:11;;;;;;;8.80;6.87;;;9.10;99.90;;;;;;5049991;28;20192;-62
2021/10/25 00:06:16;;;;;;;7.97;7.17;;;9.00;99.90;;;;;;5046369;28;20266;-61
2021/10/25 00:08:46;;;;;;;8.60;6.70;;;9.00;99.90;;;;;;5030600;28;20197;-61
2021/10/25 00:11:14;;;;;;;9.27;7.37;;;9.10;99.90;;;;;;5043524;28;20196;-61
2021/10/25 00:13:44;;;;;;;9.00;7.07;;;9.00;99.90;;;;;;5029537;28;20200;-61
2021/10/25 00:16:13;;;;;;;8.83;6.53;;;9.00;99.90;;;;;;5042379;28;20193;-62
2021/10/25 00:18:41;;;;;;;7.83;6.70;;;9.10;99.90;;;;;;5029339;28;20193;-61
2021/10/25 00:21:09;;;;;;;8.27;6.80;;;9.10;99.90;;;;;;5046121;28;20677;-62
2021/10/25 00:23:38;;;;;;;8.40;6.70;;;9.10;99.90;;;;;;5046646;28;20308;-62
2021/10/25 00:26:07;;;;;;;9.77;6.93;;;9.10;99.90;;;;;;5024358;28;20190;-62
2021/10/25 00:28:36;;;;;;;7.37;6.47;;;9.10;99.90;;;;;;5046445;28;20291;-61
2021/10/25 00:31:05;;;;;;;7.57;6.80;;;9.20;99.90;;;;;;5046208;28;20197;-62
2021/10/25 00:33:34;;;;;;;7.90;6.40;;;9.20;99.90;;;;;;5048015;28;20202;-61
2021/10/25 00:36:02;;;;;;;8.93;6.53;;;9.30;99.90;;;;;;5047993;28;20276;-61
2021/10/25 00:38:31;;;;;;;7.80;6.03;;;9.40;99.90;;;;;;5029146;28;20279;-59
2021/10/25 00:41:00;;;;;;;10.23;6.40;;;9.40;99.90;;;;;;5046050;28;20204;-61
2021/10/25 00:43:29;;;;;;;8.30;6.67;;;9.40;99.90;;;;;;5046909;28;20287;-60
2021/10/25 00:45:57;;;;;;;8.17;6.80;;;9.40;99.90;;;;;;5046000;28;20668;-61
2021/10/25 00:48:27;;;;;;;10.53;6.87;;;9.50;99.90;;;;;;5046703;28;20274;-62
2021/10/25 00:50:55;;;;;;;10.37;6.40;;;9.40;99.90;;;;;;5037952;28;20211;-62
2021/10/25 00:53:23;;;;;;;10.60;7.60;;;9.40;99.90;;;;;;5046578;28;20185;-62
2021/10/25 00:55:53;;;;;;;13.73;6.70;;;9.40;99.90;;;;;;5041342;28;20789;-62
2021/10/25 00:58:21;;;;;;;9.63;6.73;;;9.50;99.90;;;;;;5025470;28;20225;-62
2021/10/25 01:00:49;;;;;;;9.47;6.40;;;9.50;99.90;;;;;;5019777;28;21003;-62
2021/10/25 01:03:18;;;;;;;8.80;6.67;;;9.50;99.90;;;;;;5025123;28;20198;-62
2021/10/25 01:05:47;;;;;;;8.60;6.80;;;9.50;99.90;;;;;;5023083;28;20288;-62
2021/10/25 01:08:16;;;;;;;10.07;6.63;;;9.60;99.90;;;;;;5023379;28;20707;-62
2021/10/25 01:10:45;;;;;;;10.33;7.27;;;9.60;99.90;;;;;;5001531;28;20756;-62
2021/10/25 01:13:14;;;;;;;8.80;6.93;;;9.60;99.90;;;;;;5022207;28;20661;-61
2021/10/25 01:15:43;;;;;;;9.00;6.83;;;9.50;99.90;;;;;;5023893;28;20217;-62
2021/10/25 01:18:12;;;;;;;7.97;6.63;;;9.60;99.90;;;;;;5026040;28;20221;-62
2021/10/25 01:20:42;;;;;;;9.87;6.80;;;9.60;99.90;;;;;;5026031;28;20284;-62
2021/10/25 01:23:10;;;;;;;8.37;7.23;;;9.60;99.90;;;;;;5025059;28;20288;-62
2021/10/25 01:25:39;;;;;;;9.83;7.33;;;9.60;99.90;;;;;;5026332;28;20198;-62
2021/10/25 01:28:09;;;;;;;9.57;6.93;;;9.60;99.90;;;;;;5023359;28;20764;-62
2021/10/25 01:30:38;;;;;;;11.00;7.20;;;9.60;99.90;;;;;;5023322;28;20204;-62
2021/10/25 01:33:11;;;;;;;7.37;6.60;;;9.70;99.90;;;;;;5027070;28;20240;-62
2021/10/25 01:35:40;;;;;;;9.50;6.83;;;9.60;99.90;;;;;;5021500;28;20713;-60
2021/10/25 01:38:10;;;;;;;8.23;6.63;;;9.70;99.90;;;;;;5027910;28;20684;-62
2021/10/25 01:40:38;;;;;;;10.23;6.67;;;9.70;99.90;;;;;;5024692;28;20189;-62
2021/10/25 01:43:08;;;;;;;13.97;7.43;;;9.80;99.90;;;;;;5041052;28;20292;-58
2021/10/25 01:45:36;;;;;;;7.70;6.50;;;9.80;99.90;;;;;;5024208;28;20301;-62
2021/10/25 01:48:05;;;;;;;10.47;7.13;;;9.80;99.90;;;;;;5021721;28;20224;-62
2021/10/25 01:50:33;;;;;;;7.90;6.63;;;9.80;99.90;;;;;;5020465;28;20284;-62
2021/10/25 01:53:05;;;;;;;12.67;7.10;;;9.80;99.90;;;;;;5026080;28;20202;-62
2021/10/25 01:55:35;;;;;;;11.37;6.90;;;9.80;99.90;;;;;;5025824;28;20206;-62
2021/10/25 01:58:03;;;;;;;11.00;6.73;;;9.90;99.90;;;;;;5044208;28;20199;-61
2021/10/25 02:00:32;;;;;;;9.00;6.77;;;9.80;99.90;;;;;;5021722;28;20216;-62
2021/10/25 02:03:00;;;;;;;10.23;6.90;;;9.90;99.90;;;;;;5044232;28;20688;-62
2021/10/25 02:05:29;;;;;;;9.13;6.50;;;10.00;99.90;;;;;;5018550;28;20292;-62
2021/10/25 02:07:57;;;;;;;10.00;6.37;;;10.00;99.90;;;;;;5044571;28;20693;-61
2021/10/25 02:10:25;;;;;;;7.37;6.30;;;9.90;99.90;;;;;;5043093;28;20685;-62
2021/10/25 02:12:56;;;;;;;7.07;6.00;;;10.00;99.90;;;;;;5041203;28;20608;-62
2021/10/25 02:15:24;;;;;;;7.00;6.30;;;9.90;99.90;;;;;;5046688;28;20199;-62
2021/10/25 02:17:52;;;;;;;7.27;6.50;;;9.90;99.90;;;;;;5027967;28;20185;-62
2021/10/25 02:20:21;;;;;;;10.20;6.60;;;9.90;99.90;;;;;;5045971;28;20275;-62
2021/10/25 02:22:49;;;;;;;7.33;6.40;;;9.90;99.90;;;;;;5043049;28;20279;-62
2021/10/25 02:25:17;;;;;;;12.23;6.13;;;10.00;99.90;;;;;;5043492;28;20197;-62
2021/10/25 02:27:50;;;;;;;7.00;5.93;;;9.90;99.90;;;;;;5045684;28;20240;-62
2021/10/25 02:30:19;;;;;;;7.43;6.30;;;9.90;99.90;;;;;;5028445;28;20223;-62
2021/10/25 02:32:48;;;;;;;6.77;6.07;;;9.90;99.90;;;;;;5042101;28;20236;-62
2021/10/25 02:35:16;;;;;;;8.87;6.50;;;10.00;99.90;;;;;;5026420;28;20205;-62
2021/10/25 02:37:44;;;;;;;7.63;6.30;;;9.90;99.90;;;;;;5025600;28;20235;-62
2021/10/25 02:40:13;;;;;;;8.47;6.03;;;9.90;99.90;;;;;;5042641;28;20284;-62
2021/10/25 02:42:41;;;;;;;8.13;6.03;;;9.90;99.90;;;;;;5044539;28;20203;-62
2021/10/25 02:45:10;;;;;;;7.27;5.73;;;9.90;99.90;;;;;;5046322;28;20580;-62
2021/10/25 02:47:40;;;;;;;11.40;6.33;;;9.90;99.90;;;;;;5022564;28;20284;-61
2021/10/25 02:50:09;;;;;;;10.53;6.50;;;9.90;99.90;;;;;;5044180;28;20201;-62
2021/10/25 02:52:37;;;;;;;9.43;6.30;;;9.90;99.90;;;;;;5043550;28;20199;-62
2021/10/25 02:55:07;;;;;;;7.17;5.90;;;9.90;99.90;;;;;;5039871;28;20212;-61
2021/10/25 02:57:35;;;;;;;10.03;7.00;;;9.80;99.90;;;;;;5026883;28;20252;-62
2021/10/25 03:00:06;;;;;;;11.67;6.70;;;9.90;99.90;;;;;;5045616;28;20232;-62
2021/10/25 03:02:34;;;;;;;10.10;6.67;;;9.80;99.90;;;;;;5045106;28;20292;-61
2021/10/25 03:05:05;;;;;;;13.90;6.90;;;9.70;99.90;;;;;;5043458;28;20774;-62
2021/10/25 03:07:33;;;;;;;7.67;6.50;;;9.70;99.90;;;;;;5015622;28;20217;-61
2021/10/25 03:10:02;;;;;;;10.63;6.87;;;9.70;99.90;;;;;;5023486;28;20220;-61
2021/10/25 03:12:31;;;;;;;10.17;6.70;;;9.70;99.90;;;;;;5041717;28;20219;-62
2021/10/25 03:14:59;;;;;;;8.20;6.77;;;9.60;99.90;;;;;;5030599;28;20228;-62
2021/10/25 03:17:27;;;;;;;10.83;6.63;;;9.60;99.90;;;;;;5047080;28;20211;-61
2021/10/25 03:19:56;;;;;;;10.20;6.80;;;9.60;99.90;;;;;;5026270;28;20199;-61
2021/10/25 03:22:26;;;;;;;13.03;7.13;;;9.60;99.90;;;;;;5049096;28;20197;-61
2021/10/25 03:24:54;;;;;;;11.00;7.43;;;9.50;99.90;;;;;;5013044;28;20280;-61
2021/10/25 03:27:24;;;;;;;11.10;7.63;;;9.40;99.90;;;;;;5047173;28;20201;-61
2021/10/25 03:29:53;;;;;;;10.03;7.47;;;9.40;99.90;;;;;;5046030;28;20302;-61
2021/10/25 03:32:22;;;;;;;11.93;7.37;;;9.40;99.90;;;;;;5049703;28;20197;-61
2021/10/25 03:34:51;;;;;;;11.67;7.73;;;9.40;99.90;;;;;;5047117;28;20278;-61
2021/10/25 03:37:19;;;;;;;8.27;7.33;;;9.40;99.90;;;;;;5048016;28;20201;-61
2021/10/25 03:39:51;;;;;;;12.07;8.30;;;9.30;99.90;;;;;;5046412;28;20645;-61
2021/10/25 03:42:25;;;;;;;9.60;7.47;;;9.30;99.90;;;;;;5050442;28;20271;-62
2021/10/25 03:45:00;;;;;;;9.63;7.63;;;9.30;99.90;;;;;;5046487;28;20673;-61
2021/10/25 03:47:37;;;;;;;12.37;8.27;;;9.30;99.90;;;;;;5045010;28;20189;-61
2021/10/25 03:50:09;;;;;;;11.27;7.03;;;9.20;99.90;;;;;;5048588;28;20259;-61
2021/10/25 03:52:44;;;;;;;11.63;7.53;;;9.30;99.90;;;;;;5047125;28;20197;-62
2021/10/25 03:55:18;;;;;;;9.97;7.70;;;9.30;99.90;;;;;;5022570;28;20197;-62
2021/10/25 03:58:17;;;;;;;9.37;7.57;;;9.20;99.90;;;;;;5023944;28;20284;-61
2021/10/25 04:26:20;;;;;;;8.90;7.00;;;9.10;99.90;;;;;;5024536;28;20592;-61
2021/10/25 04:28:49;;;;;;;9.73;7.03;;;9.20;99.90;;;;;;5024556;28;20252;-61
2021/10/25 04:31:18;;;;;;;11.27;7.00;;;9.20;99.90;;;;;;5027625;28;20209;-62
2021/10/25 04:33:46;;;;;;;9.77;6.90;;;9.20;99.90;;;;;;5026785;28;20559;-62
2021/10/25 04:36:15;;;;;;;7.90;6.30;;;9.30;99.90;;;;;;5027552;28;20612;-62
2021/10/25 04:38:43;;;;;;;8.97;6.10;;;9.30;99.90;;;;;;5025339;28;20190;-59
2021/10/25 04:41:12;;;;;;;7.37;6.60;;;9.30;99.90;;;;;;5009509;28;20688;-62
2021/10/25 04:43:40;;;;;;;10.17;7.10;;;9.30;99.90;;;;;;5027148;28;20300;-62
2021/10/25 04:46:10;;;;;;;7.60;6.83;;;9.30;99.90;;;;;;5024871;28;20251;-61
2021/10/25 04:48:39;;;;;;;7.93;6.70;;;9.40;99.90;;;;;;5022150;28;20201;-62
2021/10/25 04:51:08;;;;;;;7.90;6.20;;;9.50;99.90;;;;;;5021388;28;20304;-62
2021/10/25 04:53:36;;;;;;;10.97;6.53;;;9.50;99.90;;;;;;5024019;28;20674;-62
2021/10/25 04:56:06;;;;;;;7.37;6.67;;;9.50;99.90;;;;;;5032609;28;20224;-62
2021/10/25 04:58:35;;;;;;;8.60;6.37;;;9.40;99.90;;;;;;5043624;28;20289;-62
2021/10/25 05:01:03;;;;;;;10.43;6.20;;;9.50;99.90;;;;;;5028591;28;20196;-62
2021/10/25 05:03:35;;;;;;;7.27;6.23;;;9.50;99.90;;;;;;5020141;28;20270;-62
2021/10/25 05:06:05;;;;;;;8.27;6.20;;;9.50;99.90;;;;;;5039869;28;20258;-62
2021/10/25 05:08:33;;;;;;;8.73;6.30;;;9.60;99.90;;;;;;5042525;28;20734;-61
2021/10/25 05:11:02;;;;;;;10.37;6.00;;;9.60;99.90;;;;;;5042922;28;20869;-62
2021/10/25 05:13:31;;;;;;;8.17;6.30;;;9.60;99.90;;;;;;5041257;28;20254;-61
2021/10/25 05:15:59;;;;;;;8.50;6.10;;;9.60;99.90;;;;;;5022897;28;20491;-62
2021/10/25 05:18:28;;;;;;;7.13;6.07;;;9.60;99.90;;;;;;5045783;28;20640;-62
2021/10/25 05:20:58;;;;;;;7.20;6.03;;;9.60;99.90;;;;;;5038235;28;20193;-62
2021/10/25 05:23:27;;;;;;;8.77;5.53;;;9.70;99.90;;;;;;5046257;28;20228;-60
2021/10/25 05:25:55;;;;;;;12.93;6.00;;;9.70;99.90;;;;;;5044164;28;20649;-62
2021/10/25 05:28:24;;;;;;;6.37;5.63;;;9.70;99.90;;;;;;5041298;28;20280;-62
2021/10/25 05:30:53;;;;;;;8.40;5.87;;;9.80;99.90;;;;;;5042022;28;20803;-62
2021/10/25 05:33:21;;;;;;;9.60;6.20;;;9.80;99.90;;;;;;5024090;28;20201;-61
2021/10/25 05:35:50;;;;;;;10.77;6.80;;;9.90;99.90;;;;;;5048445;28;20332;-62
2021/10/25 05:38:20;;;;;;;6.43;5.70;;;9.90;99.90;;;;;;5049837;28;20649;-62
2021/10/25 05:40:49;;;;;;;5.93;5.30;;;9.90;99.90;;;;;;5047806;28;20716;-62
2021/10/25 05:43:17;;;;;;;5.90;5.40;;;9.90;99.90;;;;;;5049768;28;20204;-62
2021/10/25 05:45:48;;;;;;;6.77;5.73;;;9.90;99.90;;;;;;5048362;28;20201;-62
2021/10/25 05:48:16;;;;;;;7.30;5.67;;;9.80;99.90;;;;;;5049631;28;20254;-62
2021/10/25 05:50:46;;;;;;;6.40;5.80;;;9.80;99.90;;;;;;5049259;28;20692;-62
2021/10/25 05:53:14;;;;;;;10.00;5.77;;;9.80;99.90;;;;;;5031052;28;20623;-62
2021/10/25 05:55:46;;;;;;;8.77;6.27;;;9.90;99.90;;;;;;5048894;28;20236;-62
2021/10/25 05:58:19;;;;;;;9.47;5.70;;;9.90;99.90;;;;;;5049757;28;20204;-62
2021/10/25 06:00:52;;;;;;;7.23;5.53;;;9.90;99.90;;;;;;5037651;28;20197;-61
2021/10/25 06:03:24;;;;;;;10.80;5.80;;;9.90;99.90;;;;;;5047308;28;20188;-62
2021/10/25 06:05:53;;;;;;;8.47;5.90;;;9.90;99.90;;;;;;5024132;28;20243;-62
2021/10/25 06:08:21;;;;;;;6.70;5.70;;;9.90;99.90;;;;;;5040284;28;20695;-62
2021/10/25 06:10:51;;;;;;;6.40;5.73;;;9.90;99.90;;;;;;5030216;28;20240;-62
2021/10/25 06:13:26;;;;;;;9.77;5.90;;;9.90;99.90;;;;;;5048525;28;20217;-62
2021/10/25 06:15:58;;;;;;;8.93;5.97;;;9.90;99.90;;;;;;5047166;28;20822;-61
2021/10/25 06:18:27;;;;;;;6.33;5.73;;;9.90;99.90;;;;;;5031518;28;20224;-61
2021/10/25 06:20:55;;;;;;;10.70;6.50;;;9.90;99.90;;;;;;5030918;28;20195;-61
2021/10/25 06:23:24;;;;;;;8.10;5.87;;;9.90;99.90;;;;;;5049327;28;20251;-62
2021/10/25 06:25:53;;;;;;;6.73;5.80;;;9.90;99.90;;;;;;5048873;28;20223;-61
2021/10/25 06:28:25;;;;;;;11.47;6.33;;;10.00;99.90;;;;;;5046620;28;20251;-61
2021/10/25 06:30:58;;;;;;;17.97;5.93;;;9.90;99.90;;;;;;5047784;28;20684;-62
2021/10/25 06:33:27;;;;;;;9.10;5.70;;;9.90;99.90;;;;;;5031341;28;20279;-62
2021/10/25 06:36:03;;;;;;;9.37;6.23;;;9.90;99.90;;;;;;5047350;28;20699;-61
2021/10/25 06:38:35;;;;;;;6.43;5.73;;;10.00;99.90;;;;;;5045745;28;20289;-61
2021/10/25 06:41:06;;;;;;;7.93;5.60;;;10.10;99.90;;;;;;5044486;28;20198;-60
2021/10/25 06:43:35;;;;;;;9.97;6.13;;;9.90;99.90;;;;;;5046193;28;20205;-62
2021/10/25 06:46:05;;;;;;;10.37;6.10;;;10.00;99.90;;;;;;5047190;28;20196;-61
2021/10/25 06:48:34;;;;;;;8.97;6.40;;;9.90;99.90;;;;;;5047570;28;20207;-62
2021/10/25 06:51:02;;;;;;;9.47;6.30;;;10.00;99.90;;;;;;5046072;28;20217;-61
2021/10/25 06:53:31;;;;;;;13.93;10.80;;;10.00;99.90;;;;;;5034536;28;20218;-62
2021/10/25 06:55:59;;;;;;;9.90;7.37;;;10.00;99.90;;;;;;5043549;28;20316;-62
2021/10/25 06:58:29;;;;;;;12.63;8.23;;;10.10;99.90;;;;;;5024991;28;20217;-61
2021/10/25 07:00:59;;;;;;;18.10;11.43;;;10.10;99.90;;;;;;5038454;28;20228;-61
2021/10/25 07:03:28;;;;;;;17.00;13.07;;;10.10;99.90;;;;;;5045348;28;20232;-62
2021/10/25 07:06:00;;;;;;;7.70;6.90;;;10.10;99.90;;;;;;5040794;28;20596;-62
2021/10/25 07:08:30;;;;;;;11.40;9.87;;;10.10;99.90;;;;;;5044603;28;20672;-61
2021/10/25 07:10:59;;;;;;;12.33;7.37;;;10.10;99.90;;;;;;5036838;28;20212;-62
2021/10/25 07:13:29;;;;;;;12.00;7.17;;;10.10;99.90;;;;;;5045565;28;20204;-61
2021/10/25 07:16:03;;;;;;;8.23;6.70;;;10.10;99.90;;;;;;5044033;28;20673;-61
2021/10/25 07:18:36;;;;;;;9.93;7.00;;;10.10;99.90;;;;;;5047852;28;20243;-61
2021/10/25 07:27:04;;;;;;;11.03;6.67;;;10.10;99.90;;;;;;5041367;28;20193;-62
2021/10/25 08:03:24;;;;;;;9.93;8.00;;;10.00;99.90;;;;;;5042959;28;20541;-62
2021/10/25 08:06:00;;;;;;;9.83;8.33;;;10.00;99.90;;;;;;5030521;28;20311;-56
2021/10/25 08:08:49;;;;;;;12.30;8.00;;;10.10;99.90;;;;;;5044255;28;20250;-61
2021/10/25 08:11:18;;;;;;;14.03;8.27;;;10.10;99.90;;;;;;5043075;28;20252;-62
2021/10/25 08:14:08;;;;;;;12.13;8.77;;;10.20;99.90;;;;;;5037160;28;20192;-62
2021/10/25 08:16:46;;;;;;;11.23;8.30;;;10.20;99.90;;;;;;5027290;28;20341;-62
2021/10/25 08:19:25;;;;;;;10.07;7.90;;;10.40;99.90;;;;;;5044041;28;20204;-62
2021/10/25 08:21:56;;;;;;;8.97;7.50;;;10.40;99.90;;;;;;5043568;28;20201;-59
2021/10/25 08:24:25;;;;;;;10.27;8.10;;;10.40;99.90;;;;;;5038417;28;20429;-61
2021/10/25 08:26:54;;;;;;;16.17;8.53;;;10.40;99.90;;;;;;5027651;28;20197;-62
2021/10/25 08:29:24;;;;;;;13.00;8.33;;;10.50;99.90;;;;;;5041959;28;20195;-62
2021/10/25 08:32:02;;;;;;;14.27;7.37;;;10.50;99.90;;;;;;5041626;28;20219;-60
2021/10/25 08:34:40;;;;;;;14.47;8.20;;;10.60;99.90;;;;;;5043069;28;20196;-61
2021/10/25 08:40:07;;;;;;;16.57;7.40;;;10.90;99.90;;;;;;4988863;28;20287;-62
2021/10/25 08:42:39;;;;;;;11.23;7.03;;;11.00;99.90;;;;;;5026939;28;20717;-62
2021/10/25 08:45:14;;;;;;;12.90;7.93;;;11.00;99.90;;;;;;5036806;28;20213;-62
2021/10/25 08:47:46;;;;;;;11.67;7.77;;;11.10;99.90;;;;;;5042007;28;20866;-62
2021/10/25 08:50:19;;;;;;;11.50;7.63;;;11.10;99.90;;;;;;5046839;28;20209;-62
2021/10/25 08:52:47;;;;;;;14.77;8.20;;;11.20;99.90;;;;;;5041240;28;20303;-62
2021/10/25 08:55:18;;;;;;;8.57;7.10;;;11.20;99.90;;;;;;5041269;28;20240;-62
2021/10/25 08:57:48;;;;;;;11.27;7.33;;;11.30;99.90;;;;;;5023294;28;20292;-62
2021/10/25 09:00:20;;;;;;;16.87;7.57;;;11.30;99.90;;;;;;5023787;28;20207;-62
2021/10/25 09:02:58;;;;;;;11.83;6.50;;;11.40;99.90;;;;;;5020921;28;20598;-62
2021/10/25 09:05:30;;;;;;;14.33;7.03;;;11.40;99.90;;;;;;5022603;28;20205;-62
2021/10/25 09:08:00;;;;;;;11.87;7.30;;;11.40;99.90;;;;;;5024182;28;20615;-62
2021/10/25 09:10:30;;;;;;;13.83;8.07;;;11.40;99.90;;;;;;5020614;28;20280;-62
2021/10/25 09:13:02;;;;;;;9.40;7.03;;;11.50;99.90;;;;;;5023671;28;20376;-62
2021/10/25 09:15:32;;;;;;;11.60;7.30;;;11.50;99.90;;;;;;4994940;28;20791;-62
2021/10/25 09:18:07;;;;;;;9.07;6.67;;;11.60;99.90;;;;;;5005901;28;20279;-61
2021/10/25 09:20:48;;;;;;;11.20;7.00;;;11.70;99.90;;;;;;5009105;28;20247;-61
2021/10/25 09:23:18;;;;;;;8.97;7.57;;;11.80;99.90;;;;;;5006843;28;20321;-61
2021/10/25 09:25:53;;;;;;;11.07;7.37;;;11.90;99.90;;;;;;5023395;28;20682;-62
2021/10/25 09:28:27;;;;;;;13.00;7.50;;;11.90;99.90;;;;;;5008529;28;20631;-62
2021/10/25 09:30:58;;;;;;;8.80;7.23;;;12.00;99.90;;;;;;5019097;28;20189;-62
2021/10/25 09:33:34;;;;;;;14.03;7.27;;;12.00;99.90;;;;;;5021350;28;20220;-62
2021/10/25 09:36:09;;;;;;;11.77;7.37;;;12.00;99.90;;;;;;5024395;28;20287;-61
2021/10/25 09:38:48;;;;;;;11.70;7.90;;;12.00;99.90;;;;;;5022099;28;20292;-62
2021/10/25 09:41:37;;;;;;;19.33;15.63;;;12.10;99.90;;;;;;5020608;28;20185;-62
2021/10/25 09:49:49;;;;;;;13.47;9.50;;;12.30;99.90;;;;;;5022942;28;20844;-63
2021/10/25 09:52:19;;;;;;;9.43;8.30;;;12.40;99.90;;;;;;5021999;28;20213;-62
2021/10/25 09:54:59;;;;;;;9.07;7.90;;;12.70;99.90;;;;;;5004420;28;20197;-62
2021/10/25 09:57:38;;;;;;;11.23;7.23;;;12.90;99.90;;;;;;5041389;28;20234;-61
2021/10/25 10:00:08;;;;;;;10.97;7.33;;;13.00;99.90;;;;;;5042437;28;20208;-62
2021/10/25 10:02:38;;;;;;;8.23;7.37;;;13.20;99.90;;;;;;5042037;28;20573;-63
2021/10/25 10:05:10;;;;;;;10.10;7.70;;;13.50;99.90;;;;;;5043242;28;20201;-62
2021/10/25 10:07:42;;;;;;;8.67;7.20;;;13.60;99.90;;;;;;5041704;28;20220;-63
2021/10/25 10:10:12;;;;;;;8.00;7.27;;;13.70;99.90;;;;;;5042771;28;20200;-62
2021/10/25 10:12:42;;;;;;;10.40;9.43;;;13.80;99.90;;;;;;5024599;28;20620;-61
2021/10/25 10:15:12;;;;;;;7.60;6.90;;;13.90;99.90;;;;;;5010051;28;20603;-62
2021/10/25 10:17:49;;;;;;;8.23;7.20;;;14.10;99.90;;;;;;5044540;28;20192;-63
2021/10/25 10:20:22;;;;;;;8.80;7.90;;;14.30;99.90;;;;;;5047798;28;20609;-62
2021/10/25 10:22:54;;;;;;;7.90;6.90;;;14.60;99.90;;;;;;5045177;28;20193;-62
2021/10/25 10:25:30;;;;;;;9.97;6.43;;;14.50;99.90;;;;;;5044757;28;20185;-63
2021/10/25 10:28:00;;;;;;;6.57;5.90;;;14.60;99.90;;;;;;5046408;28;20188;-63
2021/10/25 10:30:30;;;;;;;8.27;5.90;;;14.60;99.90;;;;;;5046682;28;20193;-63
2021/10/25 10:33:00;;;;;;;7.87;6.03;;;14.60;99.90;;;;;;5048239;28;20219;-63
2021/10/25 10:35:39;;;;;;;8.83;6.83;;;14.30;99.90;;;;;;5050606;28;20242;-62
2021/10/25 10:38:09;;;;;;;9.13;6.23;;;14.20;99.90;;;;;;5044658;28;20205;-63
2021/10/25 10:40:39;;;;;;;7.47;6.63;;;14.20;99.90;;;;;;5047744;28;20242;-62
2021/10/25 10:43:22;;;;;;;10.97;6.37;;;14.10;99.90;;;;;;5051203;28;20507;-62
2021/10/25 10:46:02;;;;;;;6.93;6.17;;;13.80;99.90;;;;;;5046507;28;20192;-62
2021/10/25 10:48:32;;;;;;;7.87;6.83;;;13.70;99.90;;;;;;5051023;28;20558;-62
2021/10/25 10:51:03;;;;;;;7.40;6.70;;;13.60;99.90;;;;;;5046511;28;20272;-62
2021/10/25 10:53:37;;;;;;;9.80;6.30;;;13.50;99.90;;;;;;5047280;28;20270;-62
2021/10/25 10:56:19;;;;;;;8.17;7.03;;;13.50;99.90;;;;;;5044055;28;20320;-62
2021/10/25 10:58:52;;;;;;;6.97;6.37;;;13.50;99.90;;;;;;5038523;28;20240;-62
2021/10/25 11:01:21;;;;;;;8.33;7.20;;;13.50;99.90;;;;;;5048524;28;20605;-63
2021/10/25 11:03:58;;;;;;;8.90;6.50;;;13.60;99.90;;;;;;5050494;28;20735;-62
2021/10/25 11:06:31;;;;;;;7.10;6.47;;;13.70;99.90;;;;;;5046834;28;20208;-62
2021/10/25 11:09:09;;;;;;;11.00;6.40;;;13.80;99.90;;;;;;5026732;28;20300;-63
2021/10/25 11:11:40;;;;;;;7.73;6.93;;;13.90;99.90;;;;;;5049111;28;20204;-63
2021/10/25 11:14:14;;;;;;;8.17;6.87;;;14.00;99.90;;;;;;5050984;28;20193;-62
2021/10/25 11:16:46;;;;;;;6.77;6.13;;;14.00;99.90;;;;;;5032507;28;20374;-63
2021/10/25 11:19:14;;;;;;;7.70;6.67;;;14.10;99.90;;;;;;5050590;28;20200;-63
2021/10/25 11:21:48;;;;;;;6.83;6.17;;;14.20;99.90;;;;;;5033010;28;20204;-62
2021/10/25 11:24:20;;;;;;;8.33;5.90;;;14.40;99.90;;;;;;5050473;28;20276;-63
2021/10/25 11:26:52;;;;;;;6.33;5.70;;;14.80;99.90;;;;;;5032788;28;20239;-63
2021/10/25 11:29:24;;;;;;;6.47;5.77;;;15.30;99.90;;;;;;5031137;28;20292;-63
2021/10/25 11:31:55;;;;;;;6.90;6.20;;;15.50;99.90;;;;;;5034499;28;20251;-62
2021/10/25 11:34:25;;;;;;;6.77;6.17;;;15.20;99.90;;;;;;5052111;28;20624;-62
2021/10/25 11:37:01;;;;;;;9.10;7.30;;;14.80;99.90;;;;;;5051829;28;20199;-63
2021/10/25 11:39:35;;;;;;;8.10;7.17;;;14.70;99.90;;;;;;5051326;28;20680;-62
2021/10/25 11:42:07;;;;;;;8.47;6.40;;;14.90;99.90;;;;;;5033156;28;20238;-63
2021/10/25 11:44:35;;;;;;;6.33;5.73;;;15.40;99.90;;;;;;5052048;28;20628;-63
2021/10/25 11:47:03;;;;;;;7.03;5.40;;;15.70;99.90;;;;;;5051660;28;20288;-63
2021/10/25 11:49:36;;;;;;;6.20;5.60;;;16.00;99.90;;;;;;5051732;28;20197;-63
2021/10/25 11:52:05;;;;;;;7.60;5.73;;;15.90;99.90;;;;;;5051094;28;20231;-61
2021/10/25 11:54:45;;;;;;;5.87;5.27;;;16.10;99.90;;;;;;5051778;28;20687;-63
2021/10/25 11:57:14;;;;;;;6.63;5.93;;;16.10;99.90;;;;;;5047439;28;20221;-63
2021/10/25 11:59:42;;;;;;;7.60;5.70;;;16.30;99.90;;;;;;5051863;28;20254;-63
2021/10/25 12:02:12;;;;;;;5.87;5.37;;;16.40;99.90;;;;;;5051059;28;20712;-63
2021/10/25 12:04:46;;;;;;;6.03;5.33;;;16.40;99.90;;;;;;5051913;28;20201;-63
2021/10/25 12:07:15;;;;;;;5.60;5.20;;;16.40;99.90;;;;;;5050453;28;20287;-63
2021/10/25 12:09:45;;;;;;;8.10;5.30;;;16.50;99.90;;;;;;5051490;28;20200;-63
2021/10/25 12:12:15;;;;;;;5.80;5.40;;;16.50;99.90;;;;;;5050283;28;20283;-63
2021/10/25 12:14:45;;;;;;;8.57;6.03;;;16.30;99.90;;;;;;5027523;28;20303;-63
2021/10/25 12:17:18;;;;;;;7.13;5.90;;;15.90;99.90;;;;;;5046252;28;20610;-63
2021/10/25 12:19:47;;;;;;;6.47;5.77;;;15.50;99.90;;;;;;5036179;28;20822;-62
2021/10/25 12:22:19;;;;;;;9.27;5.90;;;15.20;99.90;;;;;;5043881;28;20643;-63
2021/10/25 12:24:51;;;;;;;6.53;5.77;;;14.90;99.90;;;;;;5035172;28;20200;-63
2021/10/25 12:27:23;;;;;;;6.30;5.70;;;14.70;99.90;;;;;;5023469;28;20209;-62
2021/10/25 12:30:00;;;;;;;7.37;6.50;;;14.60;99.90;;;;;;5035209;28;20211;-62
2021/10/25 12:32:28;;;;;;;7.03;6.33;;;14.60;99.90;;;;;;5001173;28;20228;-60
2021/10/25 12:34:59;;;;;;;7.80;6.40;;;14.60;99.90;;;;;;4992471;28;20219;-60
2021/10/25 12:37:29;;;;;;;9.60;7.20;;;14.70;99.90;;;;;;5023264;28;20724;-62
2021/10/25 12:40:16;;;;;;;8.97;7.10;;;14.70;99.90;;;;;;5044296;28;20739;-62
2021/10/25 12:42:46;;;;;;;8.50;7.50;;;14.60;99.90;;;;;;5039459;28;20275;-62
2021/10/25 12:45:17;;;;;;;9.00;7.60;;;14.60;99.90;;;;;;5042678;28;20232;-63
2021/10/25 12:47:46;;;;;;;9.10;7.93;;;14.50;99.90;;;;;;5041331;28;20232;-62
2021/10/25 12:50:15;;;;;;;10.20;8.37;;;14.40;99.90;;;;;;5040825;28;20193;-63
2021/10/25 12:52:55;;;;;;;9.33;8.37;;;14.30;99.90;;;;;;5042837;28;20675;-62
2021/10/25 12:55:25;;;;;;;12.47;8.43;;;14.30;99.90;;;;;;5042466;28;20312;-62
2021/10/25 12:57:57;;;;;;;13.20;9.80;;;14.30;99.90;;;;;;5034500;28;20774;-62
2021/10/25 13:00:25;;;;;;;11.43;8.93;;;14.30;99.90;;;;;;5043990;28;20543;-63
2021/10/25 13:02:55;;;;;;;11.20;9.20;;;14.20;99.90;;;;;;5044322;28;20255;-62
2021/10/25 13:05:27;;;;;;;16.00;10.17;;;14.00;99.90;;;;;;5024264;28;20193;-62
2021/10/25 13:07:57;;;;;;;15.67;9.53;;;13.90;99.90;;;;;;5043529;28;20292;-63
2021/10/25 13:10:28;;;;;;;10.63;9.40;;;13.80;99.90;;;;;;5037720;28;20649;-63
2021/10/25 13:13:00;;;;;;;14.60;10.13;;;13.80;99.90;;;;;;5039491;28;20280;-63
2021/10/25 13:15:29;;;;;;;12.93;9.90;;;13.80;99.90;;;;;;5042667;28;20218;-63
2021/10/25 13:18:01;;;;;;;14.37;9.47;;;13.80;99.90;;;;;;5049114;28;20291;-62
2021/10/25 13:20:31;;;;;;;15.83;9.80;;;13.80;99.90;;;;;;5045854;28;20288;-63
2021/10/25 13:23:02;;;;;;;14.80;10.10;;;13.90;99.90;;;;;;5047893;28;20665;-62
2021/10/25 13:25:33;;;;;;;13.33;10.03;;;14.00;99.90;;;;;;5041676;28;20200;-62
2021/10/25 13:28:05;;;;;;;15.23;10.93;;;14.20;99.90;;;;;;5048935;28;20208;-63
2021/10/25 13:30:34;;;;;;;14.43;11.10;;;14.30;99.90;;;;;;5048547;28;20192;-61
2021/10/25 13:33:03;;;;;;;16.23;10.30;;;14.50;99.90;;;;;;5045364;28;20193;-61
2021/10/25 13:35:32;;;;;;;14.00;10.17;;;14.60;99.90;;;;;;5048648;28;20196;-63
2021/10/25 13:38:00;;;;;;;18.13;10.37;;;14.70;99.90;;;;;;5049285;28;20279;-63
2021/10/25 13:40:30;;;;;;;16.30;10.27;;;14.90;99.90;;;;;;5049205;28;20633;-63
2021/10/25 13:43:01;;;;;;;15.00;10.23;;;14.90;99.90;;;;;;5046224;28;20280;-62
2021/10/25 13:45:32;;;;;;;12.87;10.37;;;14.90;99.90;;;;;;5049573;28;20607;-63
2021/10/25 13:48:01;;;;;;;15.20;11.30;;;14.80;99.90;;;;;;5049608;28;20208;-63
2021/10/25 13:50:29;;;;;;;13.13;10.70;;;14.70;99.90;;;;;;5047005;28;20290;-62
2021/10/25 13:52:57;;;;;;;12.93;10.50;;;14.50;99.90;;;;;;5031528;28;20203;-62
2021/10/25 13:55:27;;;;;;;14.40;11.17;;;14.40;99.90;;;;;;5048758;28;20323;-63
2021/10/25 13:57:56;;;;;;;14.33;10.83;;;14.30;99.90;;;;;;5030915;28;20675;-62
2021/10/25 14:00:26;;;;;;;17.10;11.60;;;14.00;99.90;;;;;;5047929;28;20606;-63
2021/10/25 14:02:57;;;;;;;12.47;11.17;;;14.00;99.90;;;;;;5048122;28;20628;-62
2021/10/25 14:05:25;;;;;;;14.67;11.23;;;14.00;99.90;;;;;;5033017;28;20279;-62
2021/10/25 14:07:53;;;;;;;14.57;10.50;;;14.00;99.90;;;;;;5048777;28;20280;-63
2021/10/25 14:10:26;;;;;;;15.00;12.50;;;13.80;99.90;;;;;;5047891;28;20280;-62
2021/10/25 14:13:02;;;;;;;13.27;10.67;;;13.80;99.90;;;;;;5047939;28;20440;-63
2021/10/25 14:15:39;;;;;;;19.67;11.37;;;13.80;99.90;;;;;;5048118;28;20716;-62
2021/10/25 14:18:07;;;;;;;19.00;11.30;;;13.80;99.90;;;;;;5049281;28;20291;-60